createdAt,value
2023-05-01T00:00:49.508Z,87.84
2023-05-01T00:01:48.734Z,88.18
2023-05-01T00:02:48.956Z,87.88
2023-05-01T00:03:48.734Z,87.37
2023-05-01T00:04:48.690Z,87.67
2023-05-01T00:05:48.817Z,88.08
2023-05-01T00:06:48.756Z,87.98
2023-05-01T00:07:48.617Z,87.77
2023-05-01T00:08:48.672Z,87.57
2023-05-01T00:09:48.625Z,87.16
2023-05-01T00:10:48.724Z,88.08
2023-05-01T00:11:48.702Z,88.08
2023-05-01T00:12:48.577Z,87.37
2023-05-01T00:13:48.828Z,87.77
2023-05-01T00:14:48.516Z,87.26
2023-05-01T00:15:48.736Z,87.16
2023-05-01T00:16:48.775Z,87.16
2023-05-01T00:17:48.830Z,87.26
2023-05-01T00:18:48.466Z,87.77
2023-05-01T00:19:48.482Z,87.88
2023-05-01T00:20:48.494Z,87.37
2023-05-01T00:21:48.570Z,87.77
2023-05-01T00:22:48.472Z,87.57
2023-05-01T00:23:48.400Z,87.67
2023-05-01T00:24:48.428Z,87.67
2023-05-01T00:25:48.391Z,87.67
2023-05-01T00:26:48.448Z,88.39
2023-05-01T00:27:48.366Z,88.70
2023-05-01T00:28:48.452Z,88.18
2023-05-01T00:29:48.450Z,87.98
2023-05-01T00:30:48.328Z,88.80
2023-05-01T00:31:48.470Z,88.59
2023-05-01T00:32:48.477Z,88.23
2023-05-01T00:33:48.385Z,88.95
2023-05-01T00:34:48.529Z,88.74
2023-05-01T00:35:48.287Z,88.95
2023-05-01T00:36:49.755Z,88.95
2023-05-01T00:37:48.330Z,89.25
2023-05-01T00:38:48.342Z,88.84
2023-05-01T00:39:48.251Z,88.43
2023-05-01T00:40:48.294Z,88.53
2023-05-01T00:41:48.218Z,89.25
2023-05-01T00:42:48.205Z,88.64
2023-05-01T00:43:48.468Z,89.56
2023-05-01T00:44:48.224Z,89.70
2023-05-01T00:45:48.233Z,89.50
2023-05-01T00:46:48.251Z,89.29
2023-05-01T00:47:48.555Z,89.50
2023-05-01T00:48:48.335Z,89.19
2023-05-01T00:49:48.213Z,89.40
2023-05-01T00:50:48.411Z,89.60
2023-05-01T00:51:48.311Z,89.70
2023-05-01T00:52:48.333Z,89.81
2023-05-01T00:53:48.083Z,89.95
2023-05-01T03:23:27.967Z,94.80
2023-05-01T03:24:29.370Z,94.80
2023-05-01T03:25:29.038Z,94.80
2023-05-01T03:26:29.182Z,94.90
2023-05-01T03:27:29.236Z,95.01
2023-05-01T03:28:29.016Z,95.01
2023-05-01T03:29:29.187Z,95.05
2023-05-01T03:30:29.023Z,95.05
2023-05-01T03:31:29.008Z,94.84
2023-05-01T03:32:28.984Z,94.74
2023-05-01T03:33:29.092Z,94.64
2023-05-01T03:34:29.109Z,94.64
2023-05-01T03:35:29.063Z,95.15
2023-05-01T03:36:28.852Z,95.15
2023-05-01T03:37:28.869Z,95.05
2023-05-01T03:38:29.021Z,95.15
2023-05-01T03:39:28.960Z,95.05
2023-05-01T03:40:28.845Z,94.95
2023-05-01T03:41:29.017Z,95.36
2023-05-01T03:42:28.836Z,95.81
2023-05-01T03:43:28.775Z,95.81
2023-05-01T03:44:28.803Z,95.71
2023-05-01T03:45:28.797Z,96.12
2023-05-01T03:46:28.803Z,96.22
2023-05-01T03:47:28.818Z,96.33
2023-05-01T03:48:28.765Z,96.43
2023-05-01T03:49:28.764Z,96.53
2023-05-01T03:50:28.992Z,96.43
2023-05-01T03:51:28.707Z,96.33
2023-05-01T03:52:28.970Z,96.43
2023-05-01T03:53:28.705Z,96.33
2023-05-01T03:54:28.690Z,96.12
2023-05-01T03:55:29.042Z,96.33
2023-05-01T03:56:29.212Z,96.78
2023-05-01T03:57:28.748Z,96.78
2023-05-01T03:58:28.713Z,96.68
2023-05-01T03:59:28.683Z,96.68
2023-05-01T04:00:28.760Z,96.68
2023-05-01T04:01:28.693Z,96.58
2023-05-01T04:02:28.732Z,96.58
2023-05-01T04:03:28.964Z,96.58
2023-05-01T04:04:28.729Z,96.78
2023-05-01T04:05:28.588Z,96.89
2023-05-01T04:06:28.614Z,96.78
2023-05-01T04:07:28.539Z,96.68
2023-05-01T04:08:28.645Z,96.78
2023-05-01T04:09:28.571Z,96.99
2023-05-01T04:10:28.588Z,96.99
2023-05-01T04:11:28.502Z,96.93
2023-05-01T04:12:28.598Z,96.83
2023-05-01T04:13:28.587Z,96.62
2023-05-01T04:14:28.737Z,96.83
2023-05-01T04:15:28.507Z,96.93
2023-05-01T04:16:28.734Z,96.93
2023-05-01T04:17:28.506Z,96.83
2023-05-01T04:18:28.465Z,96.62
2023-05-01T04:19:28.592Z,96.93
2023-05-01T04:20:28.551Z,96.93
2023-05-01T04:21:28.679Z,97.14
2023-05-01T04:22:28.672Z,97.34
2023-05-01T04:23:28.617Z,97.24
2023-05-01T04:24:28.557Z,97.34
2023-05-01T04:25:28.505Z,97.55
2023-05-01T04:26:28.504Z,97.55
2023-05-01T04:27:28.704Z,97.44
2023-05-01T04:28:28.532Z,97.55
2023-05-01T04:29:28.347Z,97.75
2023-05-01T04:30:28.319Z,97.65
2023-05-01T04:31:28.393Z,97.65
2023-05-01T04:32:28.511Z,97.65
2023-05-01T04:33:28.383Z,97.65
2023-05-01T04:34:28.395Z,97.69
2023-05-01T04:35:28.268Z,97.69
2023-05-01T04:36:28.307Z,97.60
2023-05-01T04:37:28.279Z,97.65
2023-05-01T04:38:28.321Z,97.69
2023-05-01T04:39:28.283Z,97.80
2023-05-01T04:40:28.258Z,97.75
2023-05-01T04:41:28.274Z,97.69
2023-05-01T04:42:28.382Z,97.65
2023-05-01T04:43:28.307Z,97.86
2023-05-01T04:44:28.505Z,97.86
2023-05-01T04:45:28.195Z,97.86
2023-05-01T04:46:28.355Z,97.75
2023-05-01T04:47:28.352Z,97.75
2023-05-01T04:48:28.392Z,97.86
2023-05-01T04:49:28.610Z,97.75
2023-05-01T04:50:28.407Z,97.75
2023-05-01T04:51:28.258Z,97.75
2023-05-01T04:52:28.218Z,97.75
2023-05-01T04:53:28.162Z,97.75
2023-05-01T04:54:28.094Z,97.75
2023-05-01T04:55:30.875Z,98.06
2023-05-01T04:56:28.096Z,98.16
2023-05-01T04:57:28.074Z,98.16
2023-05-01T04:58:28.158Z,97.96
2023-05-01T04:59:28.305Z,97.96
2023-05-01T05:00:28.066Z,97.75
2023-05-01T05:01:28.372Z,97.86
2023-05-01T05:02:28.049Z,98.06
2023-05-01T05:03:28.147Z,98.06
2023-05-01T05:04:27.981Z,98.06
2023-05-01T05:05:28.222Z,97.96
2023-05-01T05:06:27.995Z,97.75
2023-05-01T05:07:28.106Z,97.61
2023-05-01T05:08:28.074Z,97.50
2023-05-01T05:09:28.040Z,97.61
2023-05-01T05:10:27.952Z,97.71
2023-05-01T05:11:27.957Z,97.71
2023-05-01T05:12:28.063Z,97.71
2023-05-01T05:13:27.920Z,97.56
2023-05-01T05:14:27.954Z,97.56
2023-05-01T05:15:27.885Z,97.45
2023-05-01T05:16:28.133Z,97.36
2023-05-01T05:17:27.900Z,97.36
2023-05-01T05:18:27.822Z,97.36
2023-05-01T05:19:27.911Z,97.56
2023-05-01T05:20:28.060Z,97.31
2023-05-01T05:21:27.916Z,97.31
2023-05-01T05:22:27.832Z,97.72
2023-05-01T05:23:27.992Z,97.82
2023-05-01T05:24:27.789Z,97.52
2023-05-01T05:25:27.959Z,97.37
2023-05-01T05:26:27.991Z,97.67
2023-05-01T05:27:27.992Z,97.57
2023-05-01T05:28:27.868Z,97.47
2023-05-01T05:29:27.772Z,97.32
2023-05-01T05:30:27.739Z,97.22
2023-05-01T05:31:27.888Z,96.60
2023-05-01T05:32:27.957Z,96.09
2023-05-01T05:33:27.689Z,96.09
2023-05-01T05:34:27.691Z,96.09
2023-05-01T05:35:27.720Z,95.74
2023-05-01T05:36:27.789Z,95.43
2023-05-01T05:37:27.644Z,95.23
2023-05-01T05:38:27.824Z,95.18
2023-05-01T05:39:27.750Z,94.67
2023-05-01T05:40:27.680Z,94.15
2023-05-01T05:41:27.678Z,93.74
2023-05-01T05:42:27.626Z,93.95
2023-05-01T05:43:28.315Z,94.01
2023-05-01T05:44:27.617Z,91.86
2023-05-01T05:45:27.605Z,92.16
2023-05-01T05:46:27.824Z,92.88
2023-05-01T05:47:27.774Z,91.09
2023-05-01T05:48:27.704Z,89.56
2023-05-01T05:49:27.562Z,90.07
2023-05-01T05:50:27.796Z,90.99
2023-05-01T05:51:27.703Z,91.97
2023-05-01T05:52:27.694Z,91.67
2023-05-01T05:53:27.766Z,91.16
2023-05-01T05:54:27.699Z,91.16
2023-05-01T05:55:27.590Z,91.42
2023-05-01T05:56:27.612Z,87.63
2023-05-01T05:57:27.556Z,88.24
2023-05-01T05:58:27.845Z,89.43
2023-05-01T05:59:27.426Z,87.79
2023-05-01T09:05:55.648Z,48.28
2023-05-01T09:06:56.688Z,52.94
2023-05-01T09:07:56.648Z,47.83
2023-05-01T09:08:56.697Z,46.22
2023-05-01T09:09:56.993Z,47.31
2023-05-01T09:10:56.752Z,45.34
2023-05-01T09:11:56.690Z,44.57
2023-05-01T09:12:56.663Z,44.27
2023-05-01T09:13:56.596Z,48.55
2023-05-01T09:14:56.598Z,47.53
2023-05-01T09:15:56.624Z,49.60
2023-05-01T09:16:56.910Z,48.28
2023-05-01T09:17:56.618Z,51.75
2023-05-01T09:18:56.850Z,49.51
2023-05-01T09:19:56.699Z,44.81
2023-05-01T09:20:56.531Z,44.84
2023-05-01T09:21:56.497Z,43.60
2023-05-01T09:22:56.521Z,45.66
2023-05-01T09:23:56.541Z,45.63
2023-05-01T09:24:56.663Z,48.07
2023-05-01T09:25:56.496Z,50.70
2023-05-01T09:26:56.537Z,52.29
2023-05-01T09:27:56.510Z,51.89
2023-05-01T09:28:56.671Z,48.79
2023-05-01T09:29:56.706Z,48.99
2023-05-01T09:30:56.631Z,50.99
2023-05-01T09:31:56.576Z,52.09
2023-05-01T09:32:56.532Z,51.09
2023-05-01T09:33:56.441Z,50.29
2023-05-01T09:34:56.571Z,51.72
2023-05-01T09:35:56.401Z,50.84
2023-05-01T09:36:56.449Z,52.37
2023-05-01T09:37:56.382Z,54.17
2023-05-01T09:38:56.417Z,53.37
2023-05-01T09:39:56.681Z,50.59
2023-05-01T09:40:56.730Z,52.09
2023-05-01T09:41:56.346Z,51.67
2023-05-01T09:42:56.543Z,51.27
2023-05-01T09:43:56.468Z,51.57
2023-05-01T09:44:56.289Z,56.67
2023-05-01T09:45:56.403Z,55.17
2023-05-01T09:46:56.376Z,52.69
2023-05-01T09:47:56.536Z,49.89
2023-05-01T09:48:56.317Z,51.42
2023-05-01T09:49:56.578Z,54.02
2023-05-01T09:50:56.446Z,53.02
2023-05-01T09:51:56.224Z,50.71
2023-05-01T09:52:56.266Z,51.14
2023-05-01T09:53:56.216Z,53.25
2023-05-01T09:54:56.223Z,51.67
2023-05-01T09:55:56.181Z,51.87
2023-05-01T09:56:56.260Z,52.59
2023-05-01T09:57:56.433Z,50.68
2023-05-01T09:58:56.369Z,52.09
2023-05-01T09:59:56.577Z,51.89
2023-05-01T10:00:56.214Z,52.89
2023-05-01T10:01:56.414Z,52.87
2023-05-01T10:02:56.368Z,52.17
2023-05-01T10:03:56.498Z,55.68
2023-05-01T10:04:56.167Z,53.25
2023-05-01T10:05:56.422Z,53.75
2023-05-01T10:06:56.394Z,54.43
2023-05-01T10:07:56.248Z,54.52
2023-05-01T10:08:56.225Z,55.30
2023-05-01T10:09:58.013Z,55.57
2023-05-01T10:10:56.105Z,56.55
2023-05-01T10:11:56.246Z,50.82
2023-05-01T10:12:56.229Z,55.82
2023-05-01T10:13:56.329Z,55.19
2023-05-01T10:14:56.289Z,51.07
2023-05-01T10:15:56.008Z,50.02
2023-05-01T10:16:56.247Z,54.69
2023-05-01T10:17:56.092Z,52.29
2023-05-01T10:18:56.193Z,51.97
2023-05-01T10:19:56.338Z,49.37
2023-05-01T10:20:55.931Z,52.07
2023-05-01T10:21:55.970Z,48.57
2023-05-01T10:22:56.068Z,49.07
2023-05-01T10:23:55.931Z,52.57
2023-05-01T10:24:55.937Z,52.74
2023-05-01T10:25:55.965Z,52.32
2023-05-01T10:26:55.891Z,48.82
2023-05-01T10:27:55.840Z,51.22
2023-05-01T10:28:56.201Z,50.02
2023-05-01T10:29:55.957Z,48.97
2023-05-01T10:30:56.016Z,50.29
2023-05-01T10:31:56.093Z,47.49
2023-05-01T10:32:56.240Z,48.69
2023-05-01T10:33:55.857Z,52.29
2023-05-01T10:34:56.293Z,50.39
2023-05-01T10:35:55.949Z,49.22
2023-05-01T10:36:55.931Z,50.52
2023-05-01T10:37:55.733Z,50.22
2023-05-01T10:38:55.749Z,52.62
2023-05-01T10:39:55.891Z,54.42
2023-05-01T10:40:55.977Z,51.52
2023-05-01T10:41:55.846Z,49.14
2023-05-01T10:42:55.731Z,47.76
2023-05-01T10:43:55.909Z,54.57
2023-05-01T10:44:56.068Z,50.76
2023-05-01T10:45:56.309Z,52.47
2023-05-01T10:46:55.888Z,51.57
2023-05-01T10:47:55.723Z,54.24
2023-05-01T10:48:55.638Z,52.32
2023-05-01T10:49:55.825Z,53.09
2023-05-01T10:50:55.831Z,55.04
2023-05-01T10:51:55.613Z,50.60
2023-05-01T10:52:55.663Z,49.68
2023-05-01T10:53:55.654Z,48.46
2023-05-01T10:54:55.787Z,48.73
2023-05-01T10:55:55.656Z,50.82
2023-05-01T10:56:55.568Z,50.30
2023-05-01T10:57:55.568Z,47.71
2023-05-01T10:58:55.605Z,51.25
2023-05-01T10:59:56.178Z,51.22
2023-05-01T11:00:55.568Z,47.22
2023-05-01T11:01:55.642Z,43.74
2023-05-01T11:02:55.578Z,46.15
2023-05-01T11:03:55.832Z,48.04
2023-05-01T11:04:55.716Z,46.23
2023-05-01T11:05:55.606Z,45.45
2023-05-01T11:06:55.741Z,47.94
2023-05-01T11:07:55.448Z,50.13
2023-05-01T11:08:55.684Z,49.11
2023-05-01T11:09:55.907Z,47.38
2023-05-01T11:10:55.602Z,47.75
2023-05-01T11:11:55.534Z,44.00
2023-05-01T11:12:55.663Z,46.28
2023-05-01T11:13:55.793Z,45.29
2023-05-01T11:14:56.027Z,44.79
2023-05-01T11:15:55.491Z,40.96
2023-05-01T11:16:55.674Z,42.97
2023-05-01T11:17:55.496Z,45.30
2023-05-01T11:18:55.739Z,49.48
2023-05-01T11:19:55.505Z,49.06
2023-05-01T11:20:55.462Z,46.08
2023-05-01T11:21:55.359Z,44.78
2023-05-01T11:22:55.357Z,44.38
2023-05-01T11:23:55.403Z,45.67
2023-05-01T11:24:55.567Z,46.67
2023-05-01T11:25:55.464Z,44.26
2023-05-01T11:26:55.692Z,44.85
2023-05-01T11:27:55.464Z,42.97
2023-05-01T11:28:55.511Z,46.97
2023-05-01T11:29:55.426Z,47.05
2023-05-01T11:30:55.224Z,43.37
2023-05-01T11:31:55.426Z,47.14
2023-05-01T11:32:55.329Z,45.26
2023-05-01T11:33:55.344Z,45.37
2023-05-01T11:34:55.621Z,44.92
2023-05-01T11:35:55.192Z,49.90
2023-05-01T11:36:55.353Z,46.31
2023-05-01T11:37:55.180Z,50.43
2023-05-01T11:38:55.179Z,47.59
2023-05-01T11:39:55.191Z,46.55
2023-05-01T11:40:55.257Z,45.73
2023-05-01T11:41:55.221Z,48.96
2023-05-01T11:42:55.530Z,44.42
2023-05-01T11:43:55.908Z,45.93
2023-05-01T11:44:55.515Z,44.32
2023-05-01T11:45:55.331Z,46.50
2023-05-01T11:46:55.168Z,42.35
2023-05-01T11:47:55.179Z,44.54
2023-05-01T11:48:55.289Z,45.83
2023-05-01T11:49:55.241Z,45.83
2023-05-01T11:50:55.134Z,46.50
2023-05-01T11:51:55.231Z,44.59
2023-05-01T11:52:55.189Z,46.24
2023-05-01T11:53:55.154Z,43.85
2023-05-01T11:54:55.003Z,41.38
2023-05-01T11:55:55.006Z,45.29
2023-05-01T11:56:55.401Z,46.28
2023-05-01T11:57:55.282Z,44.67
2023-05-01T11:58:54.993Z,44.87
2023-05-01T11:59:55.371Z,43.56
2023-05-01T12:00:54.973Z,42.77
2023-05-01T12:01:55.120Z,45.12
2023-05-01T12:02:55.056Z,42.03
2023-05-01T12:03:55.030Z,40.36
2023-05-01T12:04:55.134Z,40.80
2023-05-01T12:05:54.941Z,45.07
2023-05-01T12:06:54.992Z,41.79
2023-05-01T12:07:54.916Z,43.70
2023-05-01T12:08:54.943Z,42.61
2023-05-01T12:09:54.994Z,44.77
2023-05-01T12:10:55.571Z,44.15
2023-05-01T12:11:54.872Z,41.00
2023-05-01T12:12:55.024Z,44.29
2023-05-01T12:13:54.908Z,42.83
2023-05-01T12:14:54.964Z,40.56
2023-05-01T12:15:54.910Z,42.75
2023-05-01T12:16:54.973Z,43.84
2023-05-01T12:17:54.797Z,43.13
2023-05-01T12:18:54.762Z,45.56
2023-05-01T12:19:54.960Z,43.46
2023-05-01T12:20:54.878Z,42.63
2023-05-01T12:21:55.084Z,41.53
2023-05-01T12:22:54.821Z,37.70
2023-05-01T12:23:54.850Z,37.84
2023-05-01T12:24:55.140Z,40.86
2023-05-01T12:25:54.711Z,38.29
2023-05-01T12:26:54.742Z,42.27
2023-05-01T12:27:54.770Z,41.17
2023-05-01T12:28:54.756Z,41.58
2023-05-01T12:29:54.678Z,41.09
2023-05-01T12:30:54.746Z,44.28
2023-05-01T12:31:54.696Z,43.29
2023-05-01T12:32:54.847Z,42.79
2023-05-01T12:33:54.874Z,45.37
2023-05-01T12:34:54.717Z,43.16
2023-05-01T12:35:54.753Z,40.78
2023-05-01T12:36:54.684Z,45.23
2023-05-01T12:37:54.631Z,45.03
2023-05-01T12:38:54.604Z,40.44
2023-05-01T12:39:54.596Z,40.54
2023-05-01T12:40:54.678Z,41.44
2023-05-01T12:41:54.568Z,43.10
2023-05-01T12:42:54.680Z,41.52
2023-05-01T12:43:55.319Z,45.19
2023-05-01T12:44:54.558Z,41.22
2023-05-01T12:45:54.675Z,39.54
2023-05-01T12:46:54.775Z,44.22
2023-05-01T12:47:54.696Z,42.53
2023-05-01T12:48:54.771Z,44.49
2023-05-01T12:49:54.539Z,41.04
2023-05-01T12:50:54.760Z,44.89
2023-05-01T12:51:54.697Z,39.15
2023-05-01T12:52:54.510Z,43.32
2023-05-01T12:53:54.451Z,40.96
2023-05-01T12:54:54.443Z,42.77
2023-05-01T12:55:54.477Z,44.16
2023-05-01T12:56:54.436Z,41.08
2023-05-01T12:57:54.922Z,41.09
2023-05-01T12:58:54.472Z,39.32
2023-05-01T12:59:54.772Z,40.94
2023-05-01T13:00:54.383Z,42.43
2023-05-01T13:01:54.641Z,46.30
2023-05-01T13:02:54.648Z,40.10
2023-05-01T13:03:54.503Z,38.53
2023-05-01T13:04:54.653Z,38.63
2023-05-01T13:05:54.374Z,41.44
2023-05-01T13:06:54.326Z,43.43
2023-05-01T13:07:54.343Z,42.35
2023-05-01T13:08:54.374Z,42.75
2023-05-01T13:09:54.487Z,41.66
2023-05-01T13:10:56.939Z,44.84
2023-05-01T13:11:54.417Z,44.24
2023-05-01T13:12:54.613Z,44.07
2023-05-01T13:13:54.464Z,42.49
2023-05-01T13:14:54.270Z,42.69
2023-05-01T13:15:54.303Z,43.49
2023-05-01T13:16:54.461Z,43.39
2023-05-01T13:17:54.737Z,42.59
2023-05-01T13:18:54.495Z,41.11
2023-05-01T13:19:54.262Z,43.83
2023-05-01T13:20:54.265Z,46.62
2023-05-01T13:21:54.207Z,47.30
2023-05-01T13:22:54.557Z,42.81
2023-05-01T13:23:54.239Z,39.56
2023-05-01T13:24:54.261Z,43.18
2023-05-01T13:25:54.295Z,46.87
2023-05-01T13:26:54.164Z,44.05
2023-05-01T13:27:54.166Z,44.85
2023-05-01T13:28:54.144Z,43.85
2023-05-01T13:29:54.319Z,44.13
2023-05-01T13:30:54.099Z,45.33
2023-05-01T13:31:54.101Z,44.93
2023-05-01T13:32:54.099Z,46.33
2023-05-01T13:33:54.201Z,46.15
2023-05-01T13:34:54.123Z,46.45
2023-05-01T13:35:54.073Z,46.85
2023-05-01T13:36:54.087Z,50.65
2023-05-01T13:37:54.051Z,47.15
2023-05-01T13:38:54.259Z,48.75
2023-05-01T13:39:54.233Z,49.74
2023-05-01T13:40:54.237Z,48.05
2023-05-01T13:41:53.968Z,48.22
2023-05-01T13:42:55.018Z,48.82
2023-05-01T13:43:54.527Z,47.13
2023-05-01T13:44:54.144Z,48.35
2023-05-01T13:45:54.012Z,49.32
2023-05-01T13:46:55.200Z,50.40
2023-05-01T13:47:54.077Z,49.98
2023-05-01T13:48:53.905Z,45.29
2023-05-01T13:49:53.991Z,45.26
2023-05-01T13:50:53.906Z,47.26
2023-05-01T13:51:53.989Z,44.57
2023-05-01T13:52:54.092Z,46.76
2023-05-01T13:53:54.308Z,42.18
2023-05-01T13:54:53.943Z,42.19
2023-05-01T13:55:53.878Z,43.89
2023-05-01T13:56:53.818Z,42.27
2023-05-01T13:57:53.853Z,44.46
2023-05-01T13:58:53.814Z,43.17
2023-05-01T13:59:54.041Z,46.16
2023-05-01T14:00:53.792Z,44.87
2023-05-01T14:01:54.035Z,42.35
2023-05-01T14:02:53.917Z,44.74
2023-05-01T14:03:53.821Z,41.36
2023-05-01T14:04:53.813Z,42.87
2023-05-01T14:05:53.799Z,41.67
2023-05-01T14:06:53.869Z,42.57
2023-05-01T14:07:53.880Z,43.47
2023-05-01T14:08:53.737Z,41.89
2023-05-01T14:09:53.672Z,43.49
2023-05-01T14:10:53.780Z,44.38
2023-05-01T14:11:53.778Z,46.98
2023-05-01T14:12:53.825Z,44.11
2023-05-01T14:13:53.693Z,45.43
2023-05-01T14:14:53.801Z,46.75
2023-05-01T14:15:53.726Z,48.17
2023-05-01T14:16:54.186Z,51.07
2023-05-01T14:17:53.822Z,50.89
2023-05-01T14:18:54.270Z,50.42
2023-05-01T14:19:54.028Z,50.74
2023-05-01T14:20:53.933Z,52.84
2023-05-01T14:21:53.653Z,53.17
2023-05-01T14:22:53.714Z,53.30
2023-05-01T14:23:53.720Z,53.22
2023-05-01T14:24:53.537Z,54.32
2023-05-01T14:25:53.877Z,55.32
2023-05-01T14:26:53.712Z,54.15
2023-05-01T14:27:53.504Z,56.26
2023-05-01T14:28:53.683Z,54.95
2023-05-01T14:29:53.669Z,54.95
2023-05-01T14:30:53.536Z,54.05
2023-05-01T14:31:53.560Z,54.25
2023-05-01T14:32:53.510Z,53.67
2023-05-01T14:33:53.571Z,55.78
2023-05-01T14:34:53.762Z,54.68
2023-05-01T14:35:53.440Z,55.58
2023-05-01T14:36:53.752Z,56.18
2023-05-01T14:37:53.492Z,56.18
2023-05-01T14:38:53.455Z,55.78
2023-05-01T14:39:53.440Z,56.78
2023-05-01T14:40:53.588Z,54.00
2023-05-01T14:41:53.390Z,52.39
2023-05-01T14:42:53.346Z,53.39
2023-05-01T14:43:53.443Z,53.42
2023-05-01T14:44:53.355Z,52.84
2023-05-01T14:45:53.523Z,53.17
2023-05-01T14:46:53.518Z,54.40
2023-05-01T14:47:53.418Z,55.21
2023-05-01T14:48:53.329Z,54.20
2023-05-01T14:49:53.345Z,54.71
2023-05-01T14:50:53.525Z,54.53
2023-05-01T14:51:53.294Z,54.53
2023-05-01T14:52:54.275Z,55.74
2023-05-01T14:53:55.209Z,55.66
2023-05-01T14:54:53.283Z,56.37
2023-05-01T14:55:54.350Z,57.90
2023-05-01T14:56:53.211Z,59.55
2023-05-01T14:57:53.234Z,60.35
2023-05-01T14:58:53.238Z,60.88
2023-05-01T14:59:53.209Z,60.78
2023-05-01T15:00:53.222Z,61.41
2023-05-01T15:01:53.379Z,62.22
2023-05-01T15:02:53.425Z,63.36
2023-05-01T15:03:53.432Z,63.87
2023-05-01T15:04:53.278Z,65.51
2023-05-01T15:05:53.330Z,65.71
2023-05-01T15:06:53.196Z,67.16
2023-05-01T15:07:53.294Z,68.67
2023-05-01T15:08:53.301Z,71.64
2023-05-01T15:09:53.308Z,76.99
2023-05-01T15:10:53.129Z,79.46
2023-05-01T15:11:53.076Z,80.71
2023-05-01T15:12:53.079Z,83.27
2023-05-01T15:13:53.058Z,85.94
2023-05-01T15:14:53.062Z,88.31
2023-05-01T15:15:53.071Z,89.77
2023-05-01T15:16:53.173Z,92.25
2023-05-01T15:17:53.178Z,94.12
2023-05-01T15:18:53.121Z,94.17
2023-05-01T15:19:53.103Z,93.70
2023-05-01T15:20:53.058Z,95.53
2023-05-01T15:21:53.205Z,96.08
2023-05-01T15:22:54.364Z,97.24
2023-05-01T15:23:52.956Z,97.55
2023-05-01T15:24:52.941Z,98.30
2023-05-01T15:25:53.101Z,98.50
2023-05-01T15:26:52.990Z,99.02
2023-05-01T15:27:55.889Z,99.47
2023-05-01T15:28:52.954Z,99.99
2023-05-01T15:29:53.063Z,98.91
2023-05-01T15:30:53.007Z,98.80
2023-05-01T15:32:04.577Z,99.11
2023-05-01T15:32:53.251Z,99.26
2023-05-01T15:33:53.041Z,99.99
2023-05-01T15:34:53.141Z,99.99
2023-05-01T15:35:52.859Z,99.99
2023-05-01T15:36:52.840Z,99.99
2023-05-01T15:37:52.865Z,99.99
2023-05-01T15:38:53.177Z,99.99
2023-05-01T15:39:52.830Z,99.99
2023-05-01T15:40:52.978Z,99.99
2023-05-01T15:41:53.057Z,99.99
2023-05-01T15:42:52.843Z,99.99
2023-05-01T15:43:52.805Z,99.99
2023-05-01T15:44:52.770Z,99.99
2023-05-01T15:45:53.122Z,99.99
2023-05-01T15:46:52.876Z,99.99
2023-05-01T15:47:52.797Z,99.99
2023-05-01T15:48:52.810Z,99.99
2023-05-01T15:49:52.757Z,99.99
2023-05-01T15:50:52.818Z,99.99
2023-05-01T15:51:52.723Z,99.99
2023-05-01T15:52:52.741Z,99.99
2023-05-01T15:53:52.887Z,99.99
2023-05-01T15:54:52.698Z,99.99
2023-05-01T15:55:52.687Z,99.99
2023-05-01T15:56:52.854Z,99.99
2023-05-01T15:57:52.580Z,99.99
2023-05-01T15:58:52.699Z,99.99
2023-05-01T15:59:52.626Z,99.99
2023-05-01T16:00:52.664Z,99.99
2023-05-01T16:01:52.798Z,99.99
2023-05-01T16:02:52.935Z,99.99
2023-05-01T16:03:53.008Z,99.99
2023-05-01T16:04:52.635Z,99.99
2023-05-01T16:05:52.567Z,99.99
2023-05-01T16:06:52.593Z,99.99
2023-05-01T16:07:52.528Z,99.99
2023-05-01T16:08:52.556Z,99.99
2023-05-01T16:09:52.503Z,99.99
2023-05-01T16:10:52.609Z,99.99
2023-05-01T16:11:52.516Z,99.99
2023-05-01T16:12:52.589Z,99.99
2023-05-01T16:13:52.596Z,99.99
2023-05-01T16:14:52.490Z,99.99
2023-05-01T16:15:52.638Z,99.99
2023-05-01T16:16:52.623Z,99.99
2023-05-01T16:17:53.284Z,99.99
2023-05-01T16:18:52.601Z,99.99
2023-05-01T16:19:52.387Z,99.99
2023-05-01T16:20:52.512Z,99.99
2023-05-01T16:21:52.371Z,99.99
2023-05-01T16:22:53.061Z,99.99
2023-05-01T16:23:52.354Z,99.99
2023-05-01T16:24:52.345Z,99.99
2023-05-01T16:25:52.468Z,99.99
2023-05-01T16:26:52.318Z,99.99
2023-05-01T16:27:52.916Z,99.99
2023-05-01T16:28:52.562Z,99.99
2023-05-01T16:29:52.315Z,99.99
2023-05-01T16:30:52.307Z,99.99
2023-05-01T16:31:52.366Z,99.99
2023-05-01T16:32:52.331Z,99.99
2023-05-01T16:33:52.432Z,99.99
2023-05-01T16:34:52.290Z,99.99
2023-05-01T16:35:52.430Z,99.99
2023-05-01T16:36:52.409Z,99.99
2023-05-01T16:37:52.339Z,99.99
2023-05-01T16:38:52.167Z,99.99
2023-05-01T16:39:52.421Z,99.99
2023-05-01T16:40:52.195Z,99.99
2023-05-01T16:41:52.163Z,99.99
2023-05-01T16:42:52.307Z,99.99
2023-05-01T16:43:52.244Z,99.99
2023-05-01T16:44:52.145Z,99.99
2023-05-01T16:45:52.340Z,99.99
2023-05-01T16:46:52.222Z,99.99
2023-05-01T16:47:52.184Z,99.99
2023-05-01T16:48:52.098Z,99.99
2023-05-01T16:49:52.134Z,99.99
2023-05-01T16:50:52.066Z,99.99
2023-05-01T16:51:52.117Z,99.99
2023-05-01T16:52:52.093Z,99.99
2023-05-01T16:53:52.029Z,99.99
2023-05-01T16:54:52.189Z,99.99
2023-05-01T16:55:52.090Z,99.99
2023-05-01T16:56:52.157Z,99.99
2023-05-01T16:57:52.049Z,99.99
2023-05-01T16:58:52.047Z,99.99
2023-05-01T16:59:52.034Z,99.99
2023-05-01T17:00:52.116Z,99.99
2023-05-01T17:01:52.003Z,99.99
2023-05-01T17:02:52.118Z,99.99
2023-05-01T17:03:52.084Z,99.99
2023-05-01T17:04:52.111Z,99.99
2023-05-01T17:05:51.921Z,99.99
2023-05-01T17:06:52.169Z,99.99
2023-05-01T17:07:52.109Z,99.99
2023-05-01T17:08:51.889Z,99.99
2023-05-01T17:09:51.882Z,99.99
2023-05-01T17:10:52.060Z,99.99
2023-05-01T17:11:51.946Z,99.99
2023-05-01T17:12:52.094Z,99.99
2023-05-01T17:13:52.021Z,99.99
2023-05-01T17:14:51.885Z,99.99
2023-05-01T17:15:52.012Z,99.99
2023-05-01T17:16:51.986Z,99.99
2023-05-01T17:17:51.852Z,99.99
2023-05-01T17:18:51.813Z,99.99
2023-05-01T17:19:51.925Z,99.99
2023-05-01T17:20:51.919Z,99.99
2023-05-01T17:21:51.953Z,99.99
2023-05-01T17:22:51.959Z,99.99
2023-05-01T17:23:51.721Z,99.99
2023-05-01T17:24:51.894Z,99.99
2023-05-01T17:25:51.727Z,99.99
2023-05-01T17:26:51.688Z,99.99
2023-05-01T17:27:51.722Z,99.99
2023-05-01T17:28:51.706Z,99.99
2023-05-01T17:29:51.684Z,99.99
2023-05-01T17:30:51.745Z,99.99
2023-05-01T17:31:51.720Z,99.99
2023-05-01T17:32:51.816Z,99.99
2023-05-01T17:33:51.649Z,99.99
2023-05-01T17:34:51.869Z,99.99
2023-05-01T17:35:51.660Z,99.99
2023-05-01T17:36:51.815Z,99.99
2023-05-01T17:37:51.616Z,99.99
2023-05-01T17:38:51.764Z,99.99
2023-05-01T17:39:51.920Z,99.99
2023-05-01T17:40:51.599Z,99.99
2023-05-01T17:41:51.617Z,99.99
2023-05-01T17:42:51.766Z,99.99
2023-05-01T17:43:51.590Z,99.99
2023-05-01T17:44:51.723Z,99.99
2023-05-01T17:45:51.716Z,99.99
2023-05-01T17:46:51.826Z,99.99
2023-05-01T17:47:51.758Z,99.99
2023-05-01T17:48:51.775Z,99.99
2023-05-01T17:49:51.695Z,99.99
2023-05-01T17:50:51.475Z,99.99
2023-05-01T17:51:51.490Z,99.99
2023-05-01T17:52:51.608Z,99.99
2023-05-01T17:53:51.670Z,99.99
2023-05-01T17:54:51.438Z,99.99
2023-05-01T17:55:51.425Z,99.99
2023-05-01T17:56:51.514Z,99.99
2023-05-01T17:57:51.385Z,99.99
2023-05-01T17:58:51.477Z,99.99
2023-05-01T17:59:51.409Z,99.99
2023-05-01T18:00:51.712Z,99.99
2023-05-01T18:01:51.445Z,99.99
2023-05-01T18:02:51.757Z,99.99
2023-05-01T18:03:51.689Z,99.99
2023-05-01T18:04:51.499Z,99.99
2023-05-01T18:05:51.459Z,99.99
2023-05-01T18:06:51.369Z,99.99
2023-05-01T18:07:51.310Z,99.99
2023-05-01T18:08:51.585Z,99.99
2023-05-01T18:09:51.322Z,99.99
2023-05-01T18:10:51.436Z,99.99
2023-05-01T18:11:51.418Z,99.99
2023-05-01T18:12:51.395Z,99.99
2023-05-01T18:13:51.609Z,99.99
2023-05-01T18:14:51.373Z,99.99
2023-05-01T18:15:52.119Z,99.99
2023-05-01T18:16:51.377Z,99.99
2023-05-01T18:17:51.593Z,99.99
2023-05-01T18:18:52.389Z,99.99
2023-05-01T18:19:51.340Z,99.99
2023-05-01T18:20:51.230Z,99.99
2023-05-01T18:21:51.361Z,99.99
2023-05-01T18:22:51.206Z,99.99
2023-05-01T18:23:51.294Z,99.99
2023-05-01T18:24:51.430Z,99.99
2023-05-01T18:25:51.470Z,99.99
2023-05-01T18:26:51.166Z,99.99